sensor_id;sensor_type;location;lat;lon;timestamp;temperature;humidity
16198;DHT22;8206;51.440;6.914;2023-04-25T00:02:10;6.60;99.90
16198;DHT22;8206;51.440;6.914;2023-04-25T00:04:37;6.50;99.90
16198;DHT22;8206;51.440;6.914;2023-04-25T00:07:04;6.60;99.90
16198;DHT22;8206;51.440;6.914;2023-04-25T00:09:32;6.70;99.90
16198;DHT22;8206;51.440;6.914;2023-04-25T00:11:59;6.70;99.90
16198;DHT22;8206;51.440;6.914;2023-04-25T00:14:26;6.80;99.90
16198;DHT22;8206;51.440;6.914;2023-04-25T00:16:54;6.80;99.90
16198;DHT22;8206;51.440;6.914;2023-04-25T00:19:21;6.80;99.90
16198;DHT22;8206;51.440;6.914;2023-04-25T00:21:48;6.80;99.90
16198;DHT22;8206;51.440;6.914;2023-04-25T00:24:15;6.80;99.90
16198;DHT22;8206;51.440;6.914;2023-04-25T00:26:43;6.80;99.90
16198;DHT22;8206;51.440;6.914;2023-04-25T00:29:10;6.80;99.90
16198;DHT22;8206;51.440;6.914;2023-04-25T00:31:36;6.80;99.90
16198;DHT22;8206;51.440;6.914;2023-04-25T00:34:03;6.80;99.90
16198;DHT22;8206;51.440;6.914;2023-04-25T00:36:30;6.80;99.90
16198;DHT22;8206;51.440;6.914;2023-04-25T00:38:56;6.80;99.90
16198;DHT22;8206;51.440;6.914;2023-04-25T00:41:25;6.90;99.90
16198;DHT22;8206;51.440;6.914;2023-04-25T00:43:54;6.90;99.90
16198;DHT22;8206;51.440;6.914;2023-04-25T00:46:20;6.90;99.90
16198;DHT22;8206;51.440;6.914;2023-04-25T00:48:47;6.90;99.90
16198;DHT22;8206;51.440;6.914;2023-04-25T00:51:19;6.90;99.90
16198;DHT22;8206;51.440;6.914;2023-04-25T00:53:47;6.90;99.90
16198;DHT22;8206;51.440;6.914;2023-04-25T00:56:15;7.00;99.90
16198;DHT22;8206;51.440;6.914;2023-04-25T00:58:42;7.00;99.90
16198;DHT22;8206;51.440;6.914;2023-04-25T01:01:10;6.90;99.90
16198;DHT22;8206;51.440;6.914;2023-04-25T01:03:38;6.90;99.90
16198;DHT22;8206;51.440;6.914;2023-04-25T01:06:07;7.00;99.90
16198;DHT22;8206;51.440;6.914;2023-04-25T01:08:34;7.00;99.90
16198;DHT22;8206;51.440;6.914;2023-04-25T01:11:01;7.00;99.90
16198;DHT22;8206;51.440;6.914;2023-04-25T01:13:29;6.90;99.90
16198;DHT22;8206;51.440;6.914;2023-04-25T01:15:57;6.90;99.90
16198;DHT22;8206;51.440;6.914;2023-04-25T01:18:25;6.80;99.90
16198;DHT22;8206;51.440;6.914;2023-04-25T01:20:52;6.90;99.90
16198;DHT22;8206;51.440;6.914;2023-04-25T01:23:21;6.90;99.90
16198;DHT22;8206;51.440;6.914;2023-04-25T01:25:48;6.90;99.90
16198;DHT22;8206;51.440;6.914;2023-04-25T01:28:16;6.80;99.90
16198;DHT22;8206;51.440;6.914;2023-04-25T01:30:43;6.90;99.90
16198;DHT22;8206;51.440;6.914;2023-04-25T01:33:10;6.90;99.90
16198;DHT22;8206;51.440;6.914;2023-04-25T01:35:37;6.90;99.90
16198;DHT22;8206;51.440;6.914;2023-04-25T01:38:04;6.90;99.90
16198;DHT22;8206;51.440;6.914;2023-04-25T01:40:33;6.90;99.90
16198;DHT22;8206;51.440;6.914;2023-04-25T01:43:00;6.80;99.90
16198;DHT22;8206;51.440;6.914;2023-04-25T01:45:27;6.80;99.90
16198;DHT22;8206;51.440;6.914;2023-04-25T01:47:54;6.80;99.90
16198;DHT22;8206;51.440;6.914;2023-04-25T01:50:24;6.70;99.90
16198;DHT22;8206;51.440;6.914;2023-04-25T01:52:51;6.70;99.90
16198;DHT22;8206;51.440;6.914;2023-04-25T01:55:18;6.70;99.90
16198;DHT22;8206;51.440;6.914;2023-04-25T01:57:46;6.70;99.90
16198;DHT22;8206;51.440;6.914;2023-04-25T02:00:13;6.70;99.90
16198;DHT22;8206;51.440;6.914;2023-04-25T02:02:40;6.70;99.90
16198;DHT22;8206;51.440;6.914;2023-04-25T02:05:07;6.80;99.90
16198;DHT22;8206;51.440;6.914;2023-04-25T02:07:34;6.70;99.90
16198;DHT22;8206;51.440;6.914;2023-04-25T02:10:00;6.80;99.90
16198;DHT22;8206;51.440;6.914;2023-04-25T02:12:28;6.70;99.90
16198;DHT22;8206;51.440;6.914;2023-04-25T02:14:56;6.70;99.90
16198;DHT22;8206;51.440;6.914;2023-04-25T02:17:22;6.70;99.90
16198;DHT22;8206;51.440;6.914;2023-04-25T02:19:49;6.70;99.90
16198;DHT22;8206;51.440;6.914;2023-04-25T02:22:16;6.70;99.90
16198;DHT22;8206;51.440;6.914;2023-04-25T02:24:42;6.70;99.90
16198;DHT22;8206;51.440;6.914;2023-04-25T02:27:09;6.80;99.90
16198;DHT22;8206;51.440;6.914;2023-04-25T02:29:36;6.70;99.90
16198;DHT22;8206;51.440;6.914;2023-04-25T02:32:04;6.70;99.90
16198;DHT22;8206;51.440;6.914;2023-04-25T02:34:31;6.60;99.90
16198;DHT22;8206;51.440;6.914;2023-04-25T02:36:57;6.70;99.90
16198;DHT22;8206;51.440;6.914;2023-04-25T02:39:24;6.70;99.90
16198;DHT22;8206;51.440;6.914;2023-04-25T02:41:52;6.70;99.90
16198;DHT22;8206;51.440;6.914;2023-04-25T02:44:19;6.70;99.90
16198;DHT22;8206;51.440;6.914;2023-04-25T02:46:46;6.70;99.90
16198;DHT22;8206;51.440;6.914;2023-04-25T02:49:14;6.70;99.90
16198;DHT22;8206;51.440;6.914;2023-04-25T02:51:40;6.70;99.90
16198;DHT22;8206;51.440;6.914;2023-04-25T02:54:07;6.60;99.90
16198;DHT22;8206;51.440;6.914;2023-04-25T02:56:34;6.60;99.90
16198;DHT22;8206;51.440;6.914;2023-04-25T02:59:00;6.60;99.90
16198;DHT22;8206;51.440;6.914;2023-04-25T03:01:27;6.60;99.90
16198;DHT22;8206;51.440;6.914;2023-04-25T03:03:54;6.70;99.90
16198;DHT22;8206;51.440;6.914;2023-04-25T03:06:22;6.70;99.90
16198;DHT22;8206;51.440;6.914;2023-04-25T03:08:48;6.70;99.90
16198;DHT22;8206;51.440;6.914;2023-04-25T03:11:15;6.70;99.90
16198;DHT22;8206;51.440;6.914;2023-04-25T03:13:42;6.60;99.90
16198;DHT22;8206;51.440;6.914;2023-04-25T03:16:08;6.60;99.90
16198;DHT22;8206;51.440;6.914;2023-04-25T03:18:35;6.60;99.90
16198;DHT22;8206;51.440;6.914;2023-04-25T03:21:02;6.60;99.90
16198;DHT22;8206;51.440;6.914;2023-04-25T03:23:30;6.60;99.90
16198;DHT22;8206;51.440;6.914;2023-04-25T03:25:56;6.50;99.90
16198;DHT22;8206;51.440;6.914;2023-04-25T03:28:23;6.60;99.90
16198;DHT22;8206;51.440;6.914;2023-04-25T03:30:50;6.60;99.90
16198;DHT22;8206;51.440;6.914;2023-04-25T03:33:17;6.60;99.90
16198;DHT22;8206;51.440;6.914;2023-04-25T03:35:44;6.60;99.90
16198;DHT22;8206;51.440;6.914;2023-04-25T03:38:10;6.50;99.90
16198;DHT22;8206;51.440;6.914;2023-04-25T03:40:38;6.50;99.90
16198;DHT22;8206;51.440;6.914;2023-04-25T03:43:05;6.50;99.90
16198;DHT22;8206;51.440;6.914;2023-04-25T03:45:32;6.40;99.90
16198;DHT22;8206;51.440;6.914;2023-04-25T03:47:59;6.40;99.90
16198;DHT22;8206;51.440;6.914;2023-04-25T03:50:26;6.50;99.90
16198;DHT22;8206;51.440;6.914;2023-04-25T03:52:52;6.50;99.90
16198;DHT22;8206;51.440;6.914;2023-04-25T03:55:19;6.50;99.90
16198;DHT22;8206;51.440;6.914;2023-04-25T03:57:47;6.50;99.90
16198;DHT22;8206;51.440;6.914;2023-04-25T04:00:14;6.50;99.90
16198;DHT22;8206;51.440;6.914;2023-04-25T04:02:41;6.50;99.90
16198;DHT22;8206;51.440;6.914;2023-04-25T04:05:08;6.50;99.90
16198;DHT22;8206;51.440;6.914;2023-04-25T04:07:35;6.50;99.90
16198;DHT22;8206;51.440;6.914;2023-04-25T04:10:05;6.50;99.90
16198;DHT22;8206;51.440;6.914;2023-04-25T04:12:32;6.60;99.90
16198;DHT22;8206;51.440;6.914;2023-04-25T04:15:01;6.50;99.90
16198;DHT22;8206;51.440;6.914;2023-04-25T04:17:29;6.50;99.90
16198;DHT22;8206;51.440;6.914;2023-04-25T04:19:56;6.50;99.90
16198;DHT22;8206;51.440;6.914;2023-04-25T04:22:22;6.40;99.90
16198;DHT22;8206;51.440;6.914;2023-04-25T04:24:49;6.40;99.90
16198;DHT22;8206;51.440;6.914;2023-04-25T04:27:17;6.30;99.90
16198;DHT22;8206;51.440;6.914;2023-04-25T04:29:44;6.20;99.90
16198;DHT22;8206;51.440;6.914;2023-04-25T04:32:13;6.20;99.90
16198;DHT22;8206;51.440;6.914;2023-04-25T04:34:40;6.20;99.90
16198;DHT22;8206;51.440;6.914;2023-04-25T04:37:07;6.30;99.90
16198;DHT22;8206;51.440;6.914;2023-04-25T04:39:35;6.30;99.90
16198;DHT22;8206;51.440;6.914;2023-04-25T04:42:02;6.40;99.90
16198;DHT22;8206;51.440;6.914;2023-04-25T04:44:29;6.40;99.90
16198;DHT22;8206;51.440;6.914;2023-04-25T04:46:58;6.30;99.90
16198;DHT22;8206;51.440;6.914;2023-04-25T04:49:26;6.30;99.90
16198;DHT22;8206;51.440;6.914;2023-04-25T04:51:52;6.30;99.90
16198;DHT22;8206;51.440;6.914;2023-04-25T04:54:20;6.20;99.90
16198;DHT22;8206;51.440;6.914;2023-04-25T04:56:46;6.20;99.90
16198;DHT22;8206;51.440;6.914;2023-04-25T04:59:13;6.20;99.90
16198;DHT22;8206;51.440;6.914;2023-04-25T05:01:40;6.20;99.90
16198;DHT22;8206;51.440;6.914;2023-04-25T05:04:06;6.20;99.90
16198;DHT22;8206;51.440;6.914;2023-04-25T05:06:34;6.10;99.90
16198;DHT22;8206;51.440;6.914;2023-04-25T05:09:01;6.10;99.90
16198;DHT22;8206;51.440;6.914;2023-04-25T05:11:29;6.10;99.90
16198;DHT22;8206;51.440;6.914;2023-04-25T05:13:55;6.00;99.90
16198;DHT22;8206;51.440;6.914;2023-04-25T05:16:22;6.00;99.90
16198;DHT22;8206;51.440;6.914;2023-04-25T05:18:49;6.00;99.90
16198;DHT22;8206;51.440;6.914;2023-04-25T05:21:15;6.00;99.90
16198;DHT22;8206;51.440;6.914;2023-04-25T05:23:44;6.10;99.90
16198;DHT22;8206;51.440;6.914;2023-04-25T05:26:10;6.40;99.90
16198;DHT22;8206;51.440;6.914;2023-04-25T05:28:39;6.60;99.90
16198;DHT22;8206;51.440;6.914;2023-04-25T05:31:06;6.80;99.90
16198;DHT22;8206;51.440;6.914;2023-04-25T05:33:33;6.90;99.90
16198;DHT22;8206;51.440;6.914;2023-04-25T05:35:59;6.90;99.90
16198;DHT22;8206;51.440;6.914;2023-04-25T05:38:26;7.00;99.90
16198;DHT22;8206;51.440;6.914;2023-04-25T05:40:54;7.10;99.90
16198;DHT22;8206;51.440;6.914;2023-04-25T05:43:21;7.20;99.90
16198;DHT22;8206;51.440;6.914;2023-04-25T05:45:48;7.10;99.90
16198;DHT22;8206;51.440;6.914;2023-04-25T05:48:15;7.10;99.90
16198;DHT22;8206;51.440;6.914;2023-04-25T05:50:41;7.10;99.90
16198;DHT22;8206;51.440;6.914;2023-04-25T05:53:08;7.00;99.90
16198;DHT22;8206;51.440;6.914;2023-04-25T05:55:35;7.00;99.90
16198;DHT22;8206;51.440;6.914;2023-04-25T05:58:05;7.10;99.90
16198;DHT22;8206;51.440;6.914;2023-04-25T06:00:32;7.10;99.90
16198;DHT22;8206;51.440;6.914;2023-04-25T06:02:59;7.10;99.90
16198;DHT22;8206;51.440;6.914;2023-04-25T06:05:26;7.20;99.90
16198;DHT22;8206;51.440;6.914;2023-04-25T06:07:53;7.40;99.90
16198;DHT22;8206;51.440;6.914;2023-04-25T06:10:19;7.50;99.90
16198;DHT22;8206;51.440;6.914;2023-04-25T06:12:46;7.60;99.90
16198;DHT22;8206;51.440;6.914;2023-04-25T06:15:14;7.80;99.90
16198;DHT22;8206;51.440;6.914;2023-04-25T06:17:41;7.80;99.90
16198;DHT22;8206;51.440;6.914;2023-04-25T06:20:09;7.80;99.90
16198;DHT22;8206;51.440;6.914;2023-04-25T06:22:35;7.90;99.90
16198;DHT22;8206;51.440;6.914;2023-04-25T06:25:02;8.50;99.90
16198;DHT22;8206;51.440;6.914;2023-04-25T06:27:29;8.80;99.90
16198;DHT22;8206;51.440;6.914;2023-04-25T06:29:56;9.50;99.90
16198;DHT22;8206;51.440;6.914;2023-04-25T06:32:24;10.60;99.90
16198;DHT22;8206;51.440;6.914;2023-04-25T06:34:52;11.40;99.90
16198;DHT22;8206;51.440;6.914;2023-04-25T06:37:19;11.50;99.90
16198;DHT22;8206;51.440;6.914;2023-04-25T06:39:46;11.10;99.90
16198;DHT22;8206;51.440;6.914;2023-04-25T06:42:13;10.00;99.90
16198;DHT22;8206;51.440;6.914;2023-04-25T06:44:39;9.50;99.90
16198;DHT22;8206;51.440;6.914;2023-04-25T06:47:06;9.50;99.90
16198;DHT22;8206;51.440;6.914;2023-04-25T06:49:34;9.20;99.90
16198;DHT22;8206;51.440;6.914;2023-04-25T06:52:00;8.70;99.90
16198;DHT22;8206;51.440;6.914;2023-04-25T06:54:28;8.70;99.90
16198;DHT22;8206;51.440;6.914;2023-04-25T06:56:55;9.00;99.90
16198;DHT22;8206;51.440;6.914;2023-04-25T06:59:22;9.00;99.90
16198;DHT22;8206;51.440;6.914;2023-04-25T07:01:49;8.70;99.90
16198;DHT22;8206;51.440;6.914;2023-04-25T07:04:16;8.80;99.90
16198;DHT22;8206;51.440;6.914;2023-04-25T07:06:44;8.60;99.90
16198;DHT22;8206;51.440;6.914;2023-04-25T07:09:12;8.50;99.90
16198;DHT22;8206;51.440;6.914;2023-04-25T07:11:39;8.20;99.90
16198;DHT22;8206;51.440;6.914;2023-04-25T07:14:06;8.10;99.90
16198;DHT22;8206;51.440;6.914;2023-04-25T07:16:32;8.30;99.90
16198;DHT22;8206;51.440;6.914;2023-04-25T07:18:59;8.60;99.90
16198;DHT22;8206;51.440;6.914;2023-04-25T07:21:26;8.70;99.90
16198;DHT22;8206;51.440;6.914;2023-04-25T07:23:54;8.90;99.90
16198;DHT22;8206;51.440;6.914;2023-04-25T07:26:20;9.10;99.90
16198;DHT22;8206;51.440;6.914;2023-04-25T07:28:47;9.20;99.90
16198;DHT22;8206;51.440;6.914;2023-04-25T07:31:16;9.10;99.90
16198;DHT22;8206;51.440;6.914;2023-04-25T07:33:43;8.90;99.90
16198;DHT22;8206;51.440;6.914;2023-04-25T07:36:10;8.80;99.90
16198;DHT22;8206;51.440;6.914;2023-04-25T07:38:37;9.00;99.90
16198;DHT22;8206;51.440;6.914;2023-04-25T07:41:05;9.50;99.90
16198;DHT22;8206;51.440;6.914;2023-04-25T07:43:32;10.10;99.90
16198;DHT22;8206;51.440;6.914;2023-04-25T07:45:59;10.40;99.90
16198;DHT22;8206;51.440;6.914;2023-04-25T07:48:25;10.40;99.90
16198;DHT22;8206;51.440;6.914;2023-04-25T07:50:52;10.30;99.90
16198;DHT22;8206;51.440;6.914;2023-04-25T07:53:19;10.30;99.90
16198;DHT22;8206;51.440;6.914;2023-04-25T07:55:45;10.40;99.90
16198;DHT22;8206;51.440;6.914;2023-04-25T07:58:13;10.40;99.90
16198;DHT22;8206;51.440;6.914;2023-04-25T08:00:40;10.10;99.90
16198;DHT22;8206;51.440;6.914;2023-04-25T08:03:09;10.10;99.90
16198;DHT22;8206;51.440;6.914;2023-04-25T08:05:35;9.90;99.90
16198;DHT22;8206;51.440;6.914;2023-04-25T08:08:02;10.00;99.90
16198;DHT22;8206;51.440;6.914;2023-04-25T08:10:31;10.20;99.90
16198;DHT22;8206;51.440;6.914;2023-04-25T08:12:58;10.30;99.90
16198;DHT22;8206;51.440;6.914;2023-04-25T08:15:26;10.20;99.90
16198;DHT22;8206;51.440;6.914;2023-04-25T08:17:53;10.40;99.90
16198;DHT22;8206;51.440;6.914;2023-04-25T08:20:20;10.70;99.90
16198;DHT22;8206;51.440;6.914;2023-04-25T08:22:46;11.00;99.90
16198;DHT22;8206;51.440;6.914;2023-04-25T08:25:14;11.30;99.90
16198;DHT22;8206;51.440;6.914;2023-04-25T08:27:40;11.50;99.90
16198;DHT22;8206;51.440;6.914;2023-04-25T08:30:08;11.20;99.90
16198;DHT22;8206;51.440;6.914;2023-04-25T08:32:36;10.70;99.90
16198;DHT22;8206;51.440;6.914;2023-04-25T08:35:04;10.50;99.90
16198;DHT22;8206;51.440;6.914;2023-04-25T08:37:32;10.70;99.90
16198;DHT22;8206;51.440;6.914;2023-04-25T08:39:58;10.70;99.90
16198;DHT22;8206;51.440;6.914;2023-04-25T08:42:26;10.70;99.90
16198;DHT22;8206;51.440;6.914;2023-04-25T08:44:54;10.90;99.90
16198;DHT22;8206;51.440;6.914;2023-04-25T08:47:22;10.80;99.90
16198;DHT22;8206;51.440;6.914;2023-04-25T08:49:53;10.90;99.90
16198;DHT22;8206;51.440;6.914;2023-04-25T08:52:22;10.70;99.90
16198;DHT22;8206;51.440;6.914;2023-04-25T08:54:49;10.80;99.90
16198;DHT22;8206;51.440;6.914;2023-04-25T08:57:18;11.00;99.90
16198;DHT22;8206;51.440;6.914;2023-04-25T08:59:46;11.10;99.90
16198;DHT22;8206;51.440;6.914;2023-04-25T09:02:14;11.40;99.90
16198;DHT22;8206;51.440;6.914;2023-04-25T09:04:43;11.60;99.90
16198;DHT22;8206;51.440;6.914;2023-04-25T09:07:12;11.60;99.90
16198;DHT22;8206;51.440;6.914;2023-04-25T09:09:41;11.60;99.90
16198;DHT22;8206;51.440;6.914;2023-04-25T09:12:08;11.60;99.90
16198;DHT22;8206;51.440;6.914;2023-04-25T09:14:35;11.80;99.90
16198;DHT22;8206;51.440;6.914;2023-04-25T09:17:03;11.60;99.90
16198;DHT22;8206;51.440;6.914;2023-04-25T09:19:31;11.40;99.90
16198;DHT22;8206;51.440;6.914;2023-04-25T09:21:59;11.30;99.90
16198;DHT22;8206;51.440;6.914;2023-04-25T09:24:35;11.20;99.90
16198;DHT22;8206;51.440;6.914;2023-04-25T09:27:05;11.10;99.90
16198;DHT22;8206;51.440;6.914;2023-04-25T09:29:34;11.10;99.90
16198;DHT22;8206;51.440;6.914;2023-04-25T09:32:12;11.40;99.90
16198;DHT22;8206;51.440;6.914;2023-04-25T09:34:39;11.80;99.90
16198;DHT22;8206;51.440;6.914;2023-04-25T09:37:07;12.20;99.90
16198;DHT22;8206;51.440;6.914;2023-04-25T09:39:36;11.90;99.90
16198;DHT22;8206;51.440;6.914;2023-04-25T09:42:03;11.70;99.90
16198;DHT22;8206;51.440;6.914;2023-04-25T09:44:30;11.70;99.90
16198;DHT22;8206;51.440;6.914;2023-04-25T09:46:57;11.80;99.90
16198;DHT22;8206;51.440;6.914;2023-04-25T09:49:25;11.60;99.90
16198;DHT22;8206;51.440;6.914;2023-04-25T09:51:55;11.50;99.90
16198;DHT22;8206;51.440;6.914;2023-04-25T09:54:23;11.50;99.90
16198;DHT22;8206;51.440;6.914;2023-04-25T09:56:52;11.80;99.90
16198;DHT22;8206;51.440;6.914;2023-04-25T09:59:20;11.80;99.90
16198;DHT22;8206;51.440;6.914;2023-04-25T10:01:48;11.80;99.90
16198;DHT22;8206;51.440;6.914;2023-04-25T10:04:18;12.00;99.90
16198;DHT22;8206;51.440;6.914;2023-04-25T10:06:45;12.00;99.90
16198;DHT22;8206;51.440;6.914;2023-04-25T10:09:15;12.00;99.90
16198;DHT22;8206;51.440;6.914;2023-04-25T10:11:44;12.10;99.90
16198;DHT22;8206;51.440;6.914;2023-04-25T10:14:13;11.90;99.90
16198;DHT22;8206;51.440;6.914;2023-04-25T10:16:41;11.90;99.90
16198;DHT22;8206;51.440;6.914;2023-04-25T10:19:09;12.00;99.90
16198;DHT22;8206;51.440;6.914;2023-04-25T10:21:37;12.20;99.90
16198;DHT22;8206;51.440;6.914;2023-04-25T10:24:07;12.30;99.90
16198;DHT22;8206;51.440;6.914;2023-04-25T10:26:34;12.60;99.90
16198;DHT22;8206;51.440;6.914;2023-04-25T10:29:02;12.70;99.90
16198;DHT22;8206;51.440;6.914;2023-04-25T10:31:31;12.70;99.90
16198;DHT22;8206;51.440;6.914;2023-04-25T10:33:59;12.70;99.90
16198;DHT22;8206;51.440;6.914;2023-04-25T10:36:31;12.50;99.90
16198;DHT22;8206;51.440;6.914;2023-04-25T10:39:03;12.20;99.90
16198;DHT22;8206;51.440;6.914;2023-04-25T10:41:32;12.00;99.90
16198;DHT22;8206;51.440;6.914;2023-04-25T10:44:11;11.70;99.90
16198;DHT22;8206;51.440;6.914;2023-04-25T10:46:39;11.40;99.90
16198;DHT22;8206;51.440;6.914;2023-04-25T10:49:08;11.20;99.90
16198;DHT22;8206;51.440;6.914;2023-04-25T10:51:36;11.00;99.90
16198;DHT22;8206;51.440;6.914;2023-04-25T10:54:03;10.90;99.90
16198;DHT22;8206;51.440;6.914;2023-04-25T10:56:32;10.70;99.90
16198;DHT22;8206;51.440;6.914;2023-04-25T10:59:06;10.40;99.90
16198;DHT22;8206;51.440;6.914;2023-04-25T11:01:40;9.90;99.90
16198;DHT22;8206;51.440;6.914;2023-04-25T11:04:19;9.60;99.90
16198;DHT22;8206;51.440;6.914;2023-04-25T11:06:55;9.50;99.90
16198;DHT22;8206;51.440;6.914;2023-04-25T11:09:24;9.80;99.90
16198;DHT22;8206;51.440;6.914;2023-04-25T11:11:54;10.00;99.90
16198;DHT22;8206;51.440;6.914;2023-04-25T11:14:21;10.10;99.90
16198;DHT22;8206;51.440;6.914;2023-04-25T11:16:52;10.10;99.90
16198;DHT22;8206;51.440;6.914;2023-04-25T11:19:19;10.20;99.90
16198;DHT22;8206;51.440;6.914;2023-04-25T11:21:46;10.20;99.90
16198;DHT22;8206;51.440;6.914;2023-04-25T11:24:12;10.20;99.90
16198;DHT22;8206;51.440;6.914;2023-04-25T11:26:41;10.10;99.90
16198;DHT22;8206;51.440;6.914;2023-04-25T11:29:08;10.30;99.90
16198;DHT22;8206;51.440;6.914;2023-04-25T11:31:34;10.40;99.90
16198;DHT22;8206;51.440;6.914;2023-04-25T11:34:02;10.60;99.90
16198;DHT22;8206;51.440;6.914;2023-04-25T11:36:29;10.70;99.90
16198;DHT22;8206;51.440;6.914;2023-04-25T11:38:56;10.60;99.90
16198;DHT22;8206;51.440;6.914;2023-04-25T11:41:23;10.40;99.90
16198;DHT22;8206;51.440;6.914;2023-04-25T11:43:49;10.10;99.90
16198;DHT22;8206;51.440;6.914;2023-04-25T11:46:17;10.30;99.90
16198;DHT22;8206;51.440;6.914;2023-04-25T11:48:45;10.40;99.90
16198;DHT22;8206;51.440;6.914;2023-04-25T11:51:14;10.40;99.90
16198;DHT22;8206;51.440;6.914;2023-04-25T11:53:41;10.50;99.90
16198;DHT22;8206;51.440;6.914;2023-04-25T11:56:09;10.60;99.90
16198;DHT22;8206;51.440;6.914;2023-04-25T11:58:56;10.60;99.90
16198;DHT22;8206;51.440;6.914;2023-04-25T12:01:27;10.50;99.90
16198;DHT22;8206;51.440;6.914;2023-04-25T12:03:54;10.60;99.90
16198;DHT22;8206;51.440;6.914;2023-04-25T12:06:26;10.60;99.90
16198;DHT22;8206;51.440;6.914;2023-04-25T12:09:00;10.40;99.90
16198;DHT22;8206;51.440;6.914;2023-04-25T12:11:27;10.30;99.90
16198;DHT22;8206;51.440;6.914;2023-04-25T12:13:53;10.40;99.90
16198;DHT22;8206;51.440;6.914;2023-04-25T12:16:20;10.50;99.90
16198;DHT22;8206;51.440;6.914;2023-04-25T12:18:47;10.60;99.90
16198;DHT22;8206;51.440;6.914;2023-04-25T12:21:14;10.80;99.90
16198;DHT22;8206;51.440;6.914;2023-04-25T12:23:42;11.00;99.90
16198;DHT22;8206;51.440;6.914;2023-04-25T12:26:08;11.20;99.90
16198;DHT22;8206;51.440;6.914;2023-04-25T12:28:35;11.20;99.90
16198;DHT22;8206;51.440;6.914;2023-04-25T12:31:02;11.20;99.90
16198;DHT22;8206;51.440;6.914;2023-04-25T12:33:30;11.30;99.90
16198;DHT22;8206;51.440;6.914;2023-04-25T12:35:58;11.30;99.90
16198;DHT22;8206;51.440;6.914;2023-04-25T12:38:27;11.40;99.90
16198;DHT22;8206;51.440;6.914;2023-04-25T12:40:56;11.30;99.90
16198;DHT22;8206;51.440;6.914;2023-04-25T12:43:23;11.30;99.90
16198;DHT22;8206;51.440;6.914;2023-04-25T12:45:50;11.30;99.90
16198;DHT22;8206;51.440;6.914;2023-04-25T12:48:16;11.40;99.90
16198;DHT22;8206;51.440;6.914;2023-04-25T12:50:44;11.70;99.90
16198;DHT22;8206;51.440;6.914;2023-04-25T12:53:13;12.00;99.90
16198;DHT22;8206;51.440;6.914;2023-04-25T12:55:39;12.40;99.90
16198;DHT22;8206;51.440;6.914;2023-04-25T12:58:08;12.70;99.90
16198;DHT22;8206;51.440;6.914;2023-04-25T13:00:34;12.80;99.90
16198;DHT22;8206;51.440;6.914;2023-04-25T13:03:01;12.50;99.90
16198;DHT22;8206;51.440;6.914;2023-04-25T13:05:28;12.10;99.90
16198;DHT22;8206;51.440;6.914;2023-04-25T13:07:55;11.60;99.90
16198;DHT22;8206;51.440;6.914;2023-04-25T13:10:22;10.90;99.90
16198;DHT22;8206;51.440;6.914;2023-04-25T13:12:49;10.20;99.90
16198;DHT22;8206;51.440;6.914;2023-04-25T13:15:17;9.50;99.90
16198;DHT22;8206;51.440;6.914;2023-04-25T13:17:44;9.10;99.90
16198;DHT22;8206;51.440;6.914;2023-04-25T13:20:10;9.10;99.90
16198;DHT22;8206;51.440;6.914;2023-04-25T13:22:37;9.10;99.90
16198;DHT22;8206;51.440;6.914;2023-04-25T13:25:05;9.30;99.90
16198;DHT22;8206;51.440;6.914;2023-04-25T13:27:34;9.50;99.90
16198;DHT22;8206;51.440;6.914;2023-04-25T13:30:02;9.80;99.90
16198;DHT22;8206;51.440;6.914;2023-04-25T13:32:34;10.20;99.90
16198;DHT22;8206;51.440;6.914;2023-04-25T13:35:01;10.70;99.90
16198;DHT22;8206;51.440;6.914;2023-04-25T13:37:28;10.70;99.90
16198;DHT22;8206;51.440;6.914;2023-04-25T13:39:58;10.80;99.90
16198;DHT22;8206;51.440;6.914;2023-04-25T13:42:25;10.90;99.90
16198;DHT22;8206;51.440;6.914;2023-04-25T13:44:52;11.00;99.90
16198;DHT22;8206;51.440;6.914;2023-04-25T13:47:18;11.20;99.90
16198;DHT22;8206;51.440;6.914;2023-04-25T13:49:46;11.20;99.90
16198;DHT22;8206;51.440;6.914;2023-04-25T13:52:13;11.10;99.90
16198;DHT22;8206;51.440;6.914;2023-04-25T13:54:40;11.00;99.90
16198;DHT22;8206;51.440;6.914;2023-04-25T13:57:06;11.10;99.90
16198;DHT22;8206;51.440;6.914;2023-04-25T13:59:33;11.40;99.90
16198;DHT22;8206;51.440;6.914;2023-04-25T14:02:00;11.80;99.90
16198;DHT22;8206;51.440;6.914;2023-04-25T14:04:27;11.90;99.90
16198;DHT22;8206;51.440;6.914;2023-04-25T14:06:55;12.00;99.90
16198;DHT22;8206;51.440;6.914;2023-04-25T14:09:22;11.80;99.90
16198;DHT22;8206;51.440;6.914;2023-04-25T14:11:51;11.40;99.90
16198;DHT22;8206;51.440;6.914;2023-04-25T14:14:17;11.10;99.90
16198;DHT22;8206;51.440;6.914;2023-04-25T14:16:44;11.20;99.90
16198;DHT22;8206;51.440;6.914;2023-04-25T14:19:11;11.40;99.90
16198;DHT22;8206;51.440;6.914;2023-04-25T14:21:37;11.60;99.90
16198;DHT22;8206;51.440;6.914;2023-04-25T14:24:05;11.80;99.90
16198;DHT22;8206;51.440;6.914;2023-04-25T14:26:33;12.20;99.90
16198;DHT22;8206;51.440;6.914;2023-04-25T14:29:00;12.20;99.90
16198;DHT22;8206;51.440;6.914;2023-04-25T14:31:26;12.40;99.90
16198;DHT22;8206;51.440;6.914;2023-04-25T14:33:53;12.40;99.90
16198;DHT22;8206;51.440;6.914;2023-04-25T14:36:20;12.20;99.90
16198;DHT22;8206;51.440;6.914;2023-04-25T14:38:47;11.90;99.90
16198;DHT22;8206;51.440;6.914;2023-04-25T14:41:15;12.00;99.90
16198;DHT22;8206;51.440;6.914;2023-04-25T14:43:42;12.10;99.90
16198;DHT22;8206;51.440;6.914;2023-04-25T14:46:09;12.10;99.90
16198;DHT22;8206;51.440;6.914;2023-04-25T14:48:36;11.90;99.90
16198;DHT22;8206;51.440;6.914;2023-04-25T14:51:02;11.70;99.90
16198;DHT22;8206;51.440;6.914;2023-04-25T14:53:30;11.60;99.90
16198;DHT22;8206;51.440;6.914;2023-04-25T14:55:57;11.50;99.90
16198;DHT22;8206;51.440;6.914;2023-04-25T14:58:25;11.50;99.90
16198;DHT22;8206;51.440;6.914;2023-04-25T15:00:52;11.50;99.90
16198;DHT22;8206;51.440;6.914;2023-04-25T15:03:19;11.40;99.90
16198;DHT22;8206;51.440;6.914;2023-04-25T15:05:45;11.10;99.90
16198;DHT22;8206;51.440;6.914;2023-04-25T15:08:12;11.20;99.90
16198;DHT22;8206;51.440;6.914;2023-04-25T15:10:39;11.30;99.90
16198;DHT22;8206;51.440;6.914;2023-04-25T15:13:05;11.20;99.90
16198;DHT22;8206;51.440;6.914;2023-04-25T15:15:34;11.10;99.90
16198;DHT22;8206;51.440;6.914;2023-04-25T15:18:00;11.00;99.90
16198;DHT22;8206;51.440;6.914;2023-04-25T15:20:27;10.90;99.90
16198;DHT22;8206;51.440;6.914;2023-04-25T15:22:54;11.00;99.90
16198;DHT22;8206;51.440;6.914;2023-04-25T15:25:21;11.00;99.90
16198;DHT22;8206;51.440;6.914;2023-04-25T15:27:48;11.10;99.90
16198;DHT22;8206;51.440;6.914;2023-04-25T15:30:17;11.00;99.90
16198;DHT22;8206;51.440;6.914;2023-04-25T15:32:46;11.00;99.90
16198;DHT22;8206;51.440;6.914;2023-04-25T15:35:14;11.10;99.90
16198;DHT22;8206;51.440;6.914;2023-04-25T15:37:41;11.30;99.90
16198;DHT22;8206;51.440;6.914;2023-04-25T15:40:10;11.40;99.90
16198;DHT22;8206;51.440;6.914;2023-04-25T15:42:38;11.30;99.90
16198;DHT22;8206;51.440;6.914;2023-04-25T15:45:06;11.30;99.90
16198;DHT22;8206;51.440;6.914;2023-04-25T15:47:34;11.20;99.90
16198;DHT22;8206;51.440;6.914;2023-04-25T15:50:05;11.20;99.90
16198;DHT22;8206;51.440;6.914;2023-04-25T15:52:32;11.20;99.90
16198;DHT22;8206;51.440;6.914;2023-04-25T15:54:59;11.30;99.90
16198;DHT22;8206;51.440;6.914;2023-04-25T15:57:26;11.20;99.90